Cheltenham, PA (19012)

5:49 AM EST on December 20, 2014 (GMT -0500)
Elkin's Park - Logan's Alley | Change Station
CLOSE
Current Station
Personal Weather Station
Location: Jenkintown, PA
Elevation: 276 ft
Nearby Weather Stations

Elev 276 ft 40.09 °N, 75.13 °W | Updated 3 minutes ago

Overcast
Overcast
30.9 °F
Feels Like 31 °F
N
1.1
Wind Variable Wind from NNW

Today
High -- | Low -- °F
--% Chance of Precip.
Yesterday
High -- | Low -- °F
Precip. -- in
7:18 AM 4:37 PM
Waning Crescent, 3% visible
Pressure 30.27 in
Visibility 10.0 miles
Clouds Overcast 2600 ft
Windchill 31 °F
Dew Point 23 °F
Humidity 71%
Rainfall 0.00 in
Snow Depth Not available.
UV 0 out of 12
Pollen .10 out of 12
Air Quality Not available.
Flu Activity Not available.
METAR KPNE 200954Z AUTO 35006KT 10SM OVC026 01/M06 A3026 RMK AO2 SLP248 T00111061 TSNO $

More Conditions Fewer Conditions

Pressure 30.27 in
Visibility 10.0 miles
Clouds Overcast 2600 ft
Windchill 31 °F
Dew Point 23 °F
Humidity 71%
Rainfall 0.00 in
Snow Depth Not available.
UV 0 out of 12
Pollen .10 out of 12
Air Quality Not available.
Flu Activity Not available.
METAR KPNE 200954Z AUTO 35006KT 10SM OVC026 01/M06 A3026 RMK AO2 SLP248 T00111061 TSNO $

More Conditions Fewer Conditions

10-Day Weather Forecast

Almanac

Astronomy

Dec. 20, 2014 Rise Set
Actual Time
Civil Twilight
Nautical Twilight
Astronomical Twilight
Moon
Length of Visible Light
Length of Day
Tomorrow will be .
, % of the Moon is Illuminated

Today's Extremes

State Highs State Lows

Community

WunderPhotos

Upload Photos

1,779,151 photos uploaded!

WunderBlogs® & News

Nearby

Air Quality

  Air Quality AQ Index Pollutant
Not available.

Snow Depth

Station Depth Elevation

Earthquake Activity

City Distance Mag. Time & Date
Minimum magnitude displayed is 2.5.

Coastal Water Temperatures

Place Temperature

Nearby Weather Stations